KBIF

Biggs AAF (Fort Bliss) Airport

Fort Bliss/El Paso/, Texas, USA
METAR KBIF 172258Z AUTO 00000KT 10SM CLR 34/11 A3009 RMK AO2 SLP122 T03380109 $
Observed Flight Rules
Jul-17 @ 22:58 UTC (24 minutes ago) Visual Flight Rules
Visibility Clouds
10 miles
  • Clear skies
Temperatures Readings
Current 34°C / 93°F
Dewpoint 11°C / 52°F
Humidity 24%
Altimeter 30.09" Hg
Pressure 1012.2 hPa
Elevation 1203
METAR KBIF 172258Z AUTO 00000KT 10SM CLR 34/11 A3009 RMK AO2 SLP122 T03380109 $
Observed Flight Rules
Jul-17 @ 22:58 UTC
(24 minutes ago)
VFR
Clouds
  • Clear skies
Temperature Dewpoint
34°C / 93°F 11°C / 52°F
Humidity Altimeter Pressure
24% 30.09" Hg 1012.2 hPa